Werte bis 5 Uhr SommerzeitDiagramme Oberissigheim: Tagesdaten MonatsdatenCSV-Datei: Oberissigheim21.csv

Wetterdaten 2021 Station: Oberissigheim
Temperaturen in °C relative Nieder- Global- Wind Wind Wind- Sonnen-
Datum Boden Boden Luft Luft Luft Luft Feuchte schlag strahlung max richtung schein
20 cm 5 cm 20 cm 2 m 2 m max 2 m min % mm W/m2*d m/s m/s ° h

06.05.2021 11,3 9,8 4,7 5,0 5,7 4,5 83 0,0 0 1,4 4,3 --- ---
05.05.2021 11,0 11,0 8,8 8,4 12,6 5,6 67 1,3 4913 2,5 18,7 --- 10,2
04.05.2021 11,6 10,9 10,5 10,5 13,2 8,1 61 0,1 1421 4,0 18,8 --- 4,0
03.05.2021 11,7 12,0 9,0 9,1 15,9 0,8 55 0,0 6391 1,6 10,2 --- 12,5
02.05.2021 11,9 11,9 9,9 9,3 12,5 5,0 54 0,0 4847 2,9 11,2 --- 11,3
01.05.2021 11,6 12,1 11,1 10,6 14,6 5,2 61 0,0 4774 1,6 8,6 --- 11,5
30.04.2021 11,7 11,0 8,1 7,7 12,2 1,8 72 0,0 3010 0,9 4,8 --- 10,5
29.04.2021 13,3 13,7 12,3 11,8 17,6 6,3 72 3,0 5300 2,7 13,0 --- 11,6
28.04.2021 12,9 13,8 12,9 12,8 22,9 2,3 53 0,8 6580 2,3 10,3 --- 11,1
27.04.2021 12,3 12,9 11,2 10,7 18,4 2,0 39 0,0 7457 2,1 6,2 --- 12,5
26.04.2021 11,6 11,7 8,9 8,4 15,7 -0,3 46 0,0 7577 3,1 8,7 --- 12,5
25.04.2021 11,6 11,4 7,7 7,4 13,5 0,8 61 0,0 7319 3,6 8,9 --- 12,4
24.04.2021 11,5 11,7 8,9 8,6 16,0 0,6 62 0,0 6971 3,1 9,6 --- 12,2
23.04.2021 11,2 11,4 8,2 8,0 16,2 -0,9 61 0,0 7314 2,1 6,6 --- 12,3
22.04.2021 11,3 11,4 8,8 8,4 14,5 2,3 58 0,0 6930 3,0 9,6 --- 11,9
21.04.2021 11,1 11,9 11,0 11,2 18,5 2,4 69 0,0 6258 1,9 8,0 --- 11,8
20.04.2021 9,8 10,8 10,2 10,4 18,7 0,9 69 0,0 6717 1,1 5,3 --- 11,9
19.04.2021 9,2 9,9 9,5 9,2 14,2 4,5 84 0,9 3135 1,6 4,9 --- 8,9
18.04.2021 8,1 8,7 9,1 8,5 13,9 4,8 80 2,5 3793 1,5 5,8 --- 10,5
17.04.2021 7,5 7,4 6,4 6,2 10,1 0,4 68 0,0 3660 2,4 10,4 --- 9,3
16.04.2021 7,2 6,7 5,3 5,0 8,7 0,7 70 0,0 2891 1,9 7,3 --- 10,2
15.04.2021 7,4 6,6 3,8 3,6 9,6 -2,3 73 0,0 4837 3,0 9,0 --- 11,5
14.04.2021 7,6 7,2 3,6 3,4 9,7 -1,6 74 0,1 5577 2,1 11,4 --- 10,9
13.04.2021 7,5 7,1 3,6 3,4 11,2 -2,8 76 0,0 5761 1,8 9,9 --- 10,9
12.04.2021 7,9 7,6 5,0 4,6 9,0 0,5 77 0,3 4129 1,9 8,3 --- 9,2
11.04.2021 8,4 8,7 8,6 8,7 16,2 3,4 86 5,1 2248 2,7 10,2 --- 6,0
10.04.2021 8,1 8,5 9,1 9,1 11,4 6,8 87 3,5 1171 1,3 5,1 --- 2,8
09.04.2021 6,6 7,1 7,9 8,1 17,3 -2,2 54 0,0 5529 1,4 8,9 --- 10,7
08.04.2021 5,6 5,3 4,5 4,0 10,1 -0,4 60 0,0 3804 2,0 8,4 --- 11,5
07.04.2021 5,8 4,5 2,1 2,0 4,8 -0,1 75 1,1 1391 3,0 13,0 --- 4,6
06.04.2021 6,4 5,2 2,9 2,5 7,9 -1,4 67 0,1 4012 3,7 15,8 --- 9,0
05.04.2021 8,2 6,6 2,6 2,8 7,2 -0,7 79 1,8 1301 3,0 15,8 --- 3,7
04.04.2021 9,2 8,7 5,5 5,2 12,0 -1,8 69 0,0 4599 1,7 6,5 --- 10,5
03.04.2021 9,9 9,4 7,1 6,9 11,9 1,6 59 0,0 5242 3,2 9,8 --- 11,2
02.04.2021 10,9 10,3 8,5 8,0 13,6 4,0 65 0,0 3805 3,6 10,9 --- 8,3
01.04.2021 11,5 12,4 14,1 14,2 24,9 5,0 59 0,0 4873 1,9 10,1 --- 10,4
31.03.2021 10,8 11,8 14,3 14,9 27,6 2,6 52 0,0 5441 1,2 5,9 --- 10,6
30.03.2021 9,8 10,9 12,8 13,4 26,6 1,8 55 0,0 5505 1,1 3,3 --- 10,8
29.03.2021 8,7 9,7 12,6 13,0 22,2 5,1 51 0,0 5057 1,5 6,7 --- 10,2
28.03.2021 7,8 8,2 9,4 9,1 15,5 2,5 65 0,0 4191 1,6 9,0 --- 9,1
27.03.2021 8,3 8,3 8,2 8,0 11,2 3,0 66 0,5 3313 3,1 17,0 --- 9,0
26.03.2021 8,1 9,1 11,6 11,5 17,6 6,3 62 0,0 4284 1,8 7,9 --- 10,1
25.03.2021 7,1 7,7 8,8 8,8 16,7 0,7 68 0,0 4060 1,1 6,6 --- 9,0
24.03.2021 6,1 6,5 7,0 7,1 16,6 -1,3 69 0,0 5013 1,3 5,7 --- 10,4
23.03.2021 5,9 6,0 6,0 6,1 9,3 2,6 75 0,0 1538 0,8 5,1 --- 7,0
22.03.2021 5,5 5,5 5,6 5,3 7,8 3,3 76 0,0 1817 2,0 7,2 --- 7,0
21.03.2021 5,4 5,3 5,6 5,4 9,2 2,8 66 0,0 2160 2,9 11,8 --- 7,8
20.03.2021 4,8 4,3 2,2 1,9 6,0 -1,9 59 0,0 4039 1,4 8,3 --- 9,4
19.03.2021 5,6 4,9 2,6 2,4 6,2 -1,0 82 1,2 3408 3,0 12,5 --- 8,9
18.03.2021 5,2 4,8 2,6 2,5 8,7 -2,3 81 0,3 3663 1,2 10,2 --- 8,6
17.03.2021 5,6 5,0 2,7 2,8 6,7 -0,6 84 0,3 2380 2,2 8,4 --- 6,5
16.03.2021 6,0 5,8 5,4 5,3 10,2 2,7 77 0,5 1987 2,2 10,7 --- 6,3
15.03.2021 6,0 6,0 5,6 5,4 9,9 2,8 83 2,7 2559 3,0 12,4 --- 6,4
14.03.2021 6,0 5,8 5,1 4,9 8,3 2,7 83 2,6 2419 1,8 10,2 --- 7,8
13.03.2021 6,3 6,2 6,3 6,6 8,9 4,3 82 5,0 1473 4,0 16,3 --- 4,2
12.03.2021 6,4 6,5 7,1 7,1 11,0 3,6 72 3,0 2689 3,3 16,3 --- 7,3
11.03.2021 6,0 6,6 8,9 9,0 15,0 6,1 76 2,5 1685 3,8 15,5 --- 3,8
10.03.2021 5,4 5,8 6,7 6,5 10,3 3,1 77 0,0 2383 1,4 6,9 --- 8,1
09.03.2021 4,6 4,4 3,8 3,6 8,5 -0,2 79 0,2 2126 1,0 6,5 --- 6,4
08.03.2021 4,5 3,5 1,0 1,0 6,0 -3,7 82 0,0 1845 0,8 3,2 --- 7,4
07.03.2021 4,9 4,1 2,1 2,2 9,7 -3,9 66 0,0 4332 1,4 5,7 --- 9,6
06.03.2021 5,0 4,1 1,9 1,8 9,3 -3,9 68 0,1 4280 1,5 5,4 --- 9,6
05.03.2021 6,5 5,7 3,2 3,4 6,5 -0,6 80 0,6 1875 3,4 10,0 --- 7,0
04.03.2021 6,8 7,2 7,9 7,8 14,2 3,4 82 10,3 2464 1,6 8,4 --- 6,6
03.03.2021 6,4 6,2 6,1 6,3 16,0 -0,6 78 0,0 2813 1,1 4,2 --- 7,9
02.03.2021 6,2 6,4 7,7 7,8 17,5 1,1 72 0,0 3650 1,3 3,6 --- 8,9
01.03.2021 5,8 5,4 5,4 5,3 14,9 -1,0 80 0,0 3729 2,3 5,9 --- 9,2
28.02.2021 5,8 5,7 6,2 5,7 12,4 -0,5 72 0,0 3594 1,9 6,1 --- 8,7
27.02.2021 5,6 5,0 3,7 3,6 8,3 -0,4 87 0,1 3226 2,4 8,1 --- 8,7
26.02.2021 6,8 6,1 4,3 4,8 7,1 2,0 91 1,2 803 1,9 10,3 --- 1,5
25.02.2021 7,4 7,8 10,1 10,6 20,4 2,9 71 0,0 3152 0,8 4,5 --- 8,4
24.02.2021 6,8 7,6 10,8 11,0 20,9 3,8 78 0,0 2862 0,9 5,0 --- 8,1
23.02.2021 5,1 5,7 9,7 9,8 19,6 3,2 77 0,0 2871 1,2 6,6 --- 7,4
22.02.2021 3,5 3,8 4,6 5,8 10,9 1,7 84 0,0 2483 1,4 4,0 --- 7,8
21.02.2021 4,5 5,1 7,6 8,4 20,7 0,9 78 0,0 3038 1,1 3,4 --- 8,3
20.02.2021 4,4 5,1 8,3 8,9 17,0 3,2 78 0,0 2575 1,4 8,5 --- 7,6
19.02.2021 3,2 4,1 5,8 5,5 11,0 0,5 81 0,0 2446 2,0 10,6 --- 7,4
18.02.2021 2,1 2,5 3,6 4,4 8,3 0,1 88 0,0 1315 1,0 4,1 --- 5,6
17.02.2021 1,7 1,5 6,0 6,2 10,8 3,5 89 1,2 1464 3,2 7,6 --- 5,3
16.02.2021 1,6 1,0 3,2 3,3 9,2 0,1 92 2,7 1789 1,7 4,1 --- 6,2
15.02.2021 1,5 0,6 -1,4 -1,8 1,0 -4,3 74 0,0 718 2,2 6,3 --- 2,6
14.02.2021 1,7 0,6 -5,2 -5,1 2,2 -11,5 77 0,0 2855 1,4 1,4 --- 7,8
13.02.2021 1,8 0,9 -5,7 -5,8 0,3 -9,5 75 0,0 2839 2,9 4,3 --- 7,7
12.02.2021 2,0 1,1 -5,4 -5,8 -1,7 -8,6 82 0,0 2415 3,6 5,9 --- 6,7
11.02.2021 2,1 1,2 -5,1 -5,1 -1,1 -9,3 90 0,1 2451 1,6 3,2 --- 6,7
10.02.2021 2,4 1,3 -8,0 -8,2 -4,3 -11,5 84 0,0 2359 4,3 8,2 --- 7,2
09.02.2021 2,8 1,7 -7,9 -8,1 -5,6 -10,5 84 0,0 2127 3,2 3,9 --- 5,8
08.02.2021 3,4 2,2 -5,0 -5,4 -3,5 -7,1 94 0,0 888 3,9 5,8 --- 3,7
07.02.2021 4,6 3,8 1,3 1,3 3,6 -3,7 96 5,4 317 3,2 8,3 --- ---
06.02.2021 5,4 5,1 4,5 4,8 5,6 3,5 96 9,9 183 2,5 7,6 --- ---
05.02.2021 5,7 5,4 5,0 5,1 7,0 2,6 95 3,4 599 0,7 3,0 --- ---
04.02.2021 6,3 6,6 7,8 7,7 12,5 4,2 81 1,5 2080 1,8 8,9 --- 6,5
03.02.2021 5,5 6,4 9,2 9,5 11,6 8,2 97 19,2 402 2,0 9,7 --- 0,1
02.02.2021 4,1 4,4 6,2 6,2 9,6 3,8 99 5,1 505 1,3 5,5 --- 0,2
01.02.2021 3,2 3,1 2,8 2,6 4,2 1,0 97 1,9 625 1,6 4,5 --- 0,7
31.01.2021 3,4 2,5 0,5 0,4 1,8 -1,9 89 0,8 1011 2,5 6,4 --- 4,0
30.01.2021 4,7 4,5 3,3 3,5 7,8 0,1 93 3,2 587 2,5 9,5 --- 1,1
29.01.2021 4,4 5,2 7,4 7,8 10,6 5,6 92 3,9 768 2,3 12,5 --- 2,8
28.01.2021 2,7 2,9 4,3 4,4 8,9 2,0 99 0,0 359 1,9 6,5 --- 0,1
27.01.2021 2,2 1,5 0,6 0,7 2,2 -1,0 96 0,0 478 2,1 8,6 --- 0,6
26.01.2021 2,4 1,8 1,4 1,6 3,7 -1,2 90 0,0 481 2,1 9,8 --- 0,5
25.01.2021 2,6 1,9 0,2 0,1 2,4 -1,0 96 0,2 682 0,6 4,0 --- 2,5
24.01.2021 3,2 2,4 1,1 1,3 3,2 -0,3 94 9,8 514 2,4 9,4 --- 0,8
23.01.2021 3,9 3,4 2,5 2,7 4,7 0,5 96 0,0 535 1,7 6,4 --- 0,4
22.01.2021 4,7 5,1 5,6 5,8 10,8 1,4 88 7,9 578 3,5 17,3 --- 0,3
21.01.2021 3,5 4,1 8,1 8,4 11,4 6,7 70 1,0 416 4,7 15,6 --- 0,2
20.01.2021 2,2 2,1 4,7 5,2 9,8 0,5 71 0,0 1254 2,4 9,1 --- 4,1
19.01.2021 2,0 1,8 2,5 2,8 3,9 0,8 88 2,9 307 3,3 13,9 --- ---
18.01.2021 1,5 1,1 2,4 2,6 5,0 0,0 91 0,8 781 1,6 7,1 --- 3,2
17.01.2021 1,4 0,5 -0,8 -1,0 1,3 -2,5 98 1,9 708 1,1 3,8 --- 2,0
16.01.2021 1,4 0,5 -0,9 -0,9 0,4 -2,0 76 0,0 592 1,8 6,8 --- 1,0
15.01.2021 1,6 0,6 -1,3 -0,9 1,1 -3,5 89 0,0 640 1,4 4,6 --- 0,5
14.01.2021 2,0 1,3 0,9 1,1 3,0 -0,5 80 0,0 680 1,9 8,1 --- 1,9
13.01.2021 1,8 1,0 1,1 1,4 5,0 -0,9 87 0,0 990 1,6 8,1 --- 4,2
12.01.2021 1,8 0,8 1,2 1,5 3,3 0,4 92 3,2 285 3,1 10,7 --- ---
11.01.2021 2,0 0,8 -1,7 -1,8 3,0 -6,1 86 0,1 1492 1,7 9,5 --- 5,7
10.01.2021 2,6 1,5 -0,4 -0,6 5,0 -3,8 92 0,0 1410 0,8 2,6 --- 4,8
09.01.2021 2,9 2,0 0,9 0,7 6,7 -1,3 91 0,1 1175 1,4 6,0 --- 3,3
08.01.2021 3,1 2,3 2,1 1,4 2,5 0,4 95 0,3 406 2,4 7,1 --- ---
07.01.2021 3,3 2,5 1,5 1,3 2,6 0,8 92 0,0 397 1,8 5,6 --- 0,5
06.01.2021 3,3 2,7 1,5 1,6 2,8 0,3 96 1,4 304 1,5 5,7 --- ---
05.01.2021 3,3 2,6 1,8 1,9 3,5 0,9 95 0,5 429 2,1 7,3 --- 0,4
04.01.2021 3,2 2,4 1,0 1,1 2,3 0,1 96 0,7 326 1,4 4,2 --- ---
03.01.2021 3,3 2,2 0,3 0,4 2,5 -1,9 92 1,5 345 1,7 5,3 --- ---
02.01.2021 3,9 3,0 1,0 1,2 3,4 -1,2 97 0,0 628 1,6 4,8 --- 1,6
01.01.2021 4,1 3,6 2,4 2,5 3,7 1,0 98 0,5 318 0,6 3,2 --- 0,4

Mittelwerte (Temperaturen, Strahlung, rel. Feuchte, Wind), Summe (Regen) für 2021
5,9 5,7 4,8 4,8 78 143 2.671 2,1

Landesbetrieb Landwirtschaft Hessen 2009

      Werte bis 5 Uhr SommerzeitCSV-Datei: Oberissigheim21.csvDiagramm: Oberissigheim